Terminal Aerodrome Forecast
Issued by NWS Nashville, TN

Home | Current Version | Previous Version | Text Only | Print | Product List | Glossary On
Versions: 1 2 3 4 5 6 7 8 9 10 11 12 13 14 15 16 17 18 19 20 21 22 23 24 25 26 27 28 29 30 31 32 33 34 35 36 37 38 39
897
FTUS44 KOHX 201732
TAFBNA
TAF
KBNA 201732Z 2018/2118 21008KT P6SM SCT025 BKN035
      TEMPO 2018/2022 BKN025 BKN035
     FM210600 19007KT P6SM BKN025
     FM211100 18006KT 4SM BR VCSH OVC007
     FM211700 18010KT P6SM OVC050=

USA.gov is the U.S. government's official web portal to all federal, state and local government web resources and services.